Current | Forecast
Updated: 4:30 AM CEST on August 21, 2017
Observed at Sevilla, Spain
Temperature 26°C
Humidity 65%
Dew Point 19°C
Wind WSW at 2 km/h
Pressure 1015 hPa (Falling)
Conditions Clear
Visibility -
UV N/A
Clouds
Yesterday's Maximum 38°C
Yesterday's Minimum 23°C approx.
Yesterday's Cooling Degree Days 22 approx.
Sunrise7:44 AM CEST
Sunset9:06 PM CEST
Moon Rise7:13 AM CEST
Moon Set9:04 PM CEST
Moon PhaseMoon Phase
Waning Crescent
Raw METARMETAR LEZL 210230Z 25001KT CAVOK 26/19 Q1015 NOSIG


Monday
. High: 89° F.
Tuesday
. High: 82° F.
Wednesday
. High: 78° F.
Thursday
. High: 84° F.
Friday
. High: 89° F.
Saturday
. High: 87° F.
Sunday
. High: 95° F.
Monday
. High: 95° F.

Click here for Marine Information
Scientific forecaster discussion (NWS)

Units: English | Metric

Find the Weather for any City, State or Zipcode, or Country:

U.S. State List | Severe Weather | Tropical Storms | Ski Conditions
United States | Canada | Central America | South America | Asia | Europe | Australia | Africa | Islands

Weather Underground

© Copyright 2017
The Weather Company, LLC